sensor_id;sensor_type;location;lat;lon;timestamp;P1;durP1;ratioP1;P2;durP2;ratioP2
39956;SDS011;48483;44.640;7.494;2022-10-04T00:02:05;2.15;;;1.17;;
39956;SDS011;48483;44.640;7.494;2022-10-04T00:04:46;1.98;;;1.20;;
39956;SDS011;48483;44.640;7.494;2022-10-04T00:07:20;2.42;;;1.05;;
39956;SDS011;48483;44.640;7.494;2022-10-04T00:09:51;1.80;;;1.20;;
39956;SDS011;48483;44.640;7.494;2022-10-04T00:12:22;2.50;;;1.02;;
39956;SDS011;48483;44.640;7.494;2022-10-04T00:14:54;3.38;;;1.60;;
39956;SDS011;48483;44.640;7.494;2022-10-04T00:17:24;3.95;;;2.22;;
39956;SDS011;48483;44.640;7.494;2022-10-04T00:19:53;3.83;;;2.22;;
39956;SDS011;48483;44.640;7.494;2022-10-04T00:22:21;3.75;;;2.15;;
39956;SDS011;48483;44.640;7.494;2022-10-04T00:31:14;3.83;;;2.75;;
39956;SDS011;48483;44.640;7.494;2022-10-04T00:33:48;5.75;;;3.10;;
39956;SDS011;48483;44.640;7.494;2022-10-04T00:39:25;7.22;;;3.10;;
39956;SDS011;48483;44.640;7.494;2022-10-04T00:42:07;4.47;;;2.92;;
39956;SDS011;48483;44.640;7.494;2022-10-04T00:44:59;4.65;;;2.95;;
39956;SDS011;48483;44.640;7.494;2022-10-04T00:47:32;5.70;;;2.90;;
39956;SDS011;48483;44.640;7.494;2022-10-04T00:50:07;5.10;;;2.95;;
39956;SDS011;48483;44.640;7.494;2022-10-04T00:52:41;7.95;;;3.10;;
39956;SDS011;48483;44.640;7.494;2022-10-04T00:55:17;4.55;;;2.78;;
39956;SDS011;48483;44.640;7.494;2022-10-04T00:57:49;6.88;;;3.22;;
39956;SDS011;48483;44.640;7.494;2022-10-04T01:00:22;6.68;;;3.10;;
39956;SDS011;48483;44.640;7.494;2022-10-04T01:02:52;4.60;;;2.75;;
39956;SDS011;48483;44.640;7.494;2022-10-04T01:05:27;4.38;;;2.33;;
39956;SDS011;48483;44.640;7.494;2022-10-04T01:07:57;5.82;;;2.80;;
39956;SDS011;48483;44.640;7.494;2022-10-04T01:10:31;5.32;;;2.63;;
39956;SDS011;48483;44.640;7.494;2022-10-04T01:13:06;4.05;;;2.75;;
39956;SDS011;48483;44.640;7.494;2022-10-04T01:15:38;6.95;;;2.78;;
39956;SDS011;48483;44.640;7.494;2022-10-04T01:18:12;4.72;;;2.22;;
39956;SDS011;48483;44.640;7.494;2022-10-04T01:20:48;5.00;;;2.92;;
39956;SDS011;48483;44.640;7.494;2022-10-04T01:29:05;6.68;;;2.92;;
39956;SDS011;48483;44.640;7.494;2022-10-04T01:34:02;4.22;;;2.67;;
39956;SDS011;48483;44.640;7.494;2022-10-04T01:36:33;7.40;;;3.22;;
39956;SDS011;48483;44.640;7.494;2022-10-04T01:39:02;5.03;;;3.25;;
39956;SDS011;48483;44.640;7.494;2022-10-04T01:41:31;7.53;;;2.75;;
39956;SDS011;48483;44.640;7.494;2022-10-04T01:44:05;7.05;;;3.13;;
39956;SDS011;48483;44.640;7.494;2022-10-04T01:46:36;7.90;;;3.08;;
39956;SDS011;48483;44.640;7.494;2022-10-04T01:49:06;5.30;;;3.00;;
39956;SDS011;48483;44.640;7.494;2022-10-04T01:51:36;8.48;;;3.28;;
39956;SDS011;48483;44.640;7.494;2022-10-04T01:54:08;4.70;;;3.08;;
39956;SDS011;48483;44.640;7.494;2022-10-04T01:56:39;5.13;;;3.10;;
39956;SDS011;48483;44.640;7.494;2022-10-04T02:01:44;6.03;;;3.25;;
39956;SDS011;48483;44.640;7.494;2022-10-04T02:04:16;4.93;;;3.17;;
39956;SDS011;48483;44.640;7.494;2022-10-04T02:06:47;8.90;;;4.05;;
39956;SDS011;48483;44.640;7.494;2022-10-04T02:09:22;6.80;;;3.88;;
39956;SDS011;48483;44.640;7.494;2022-10-04T02:11:51;6.30;;;3.90;;
39956;SDS011;48483;44.640;7.494;2022-10-04T02:14:20;7.70;;;4.47;;
39956;SDS011;48483;44.640;7.494;2022-10-04T02:16:49;6.83;;;4.40;;
39956;SDS011;48483;44.640;7.494;2022-10-04T02:19:18;8.10;;;4.28;;
39956;SDS011;48483;44.640;7.494;2022-10-04T02:21:47;6.45;;;4.13;;
39956;SDS011;48483;44.640;7.494;2022-10-04T02:24:15;7.63;;;4.50;;
39956;SDS011;48483;44.640;7.494;2022-10-04T02:26:48;9.50;;;5.47;;
39956;SDS011;48483;44.640;7.494;2022-10-04T02:29:15;8.23;;;4.82;;
39956;SDS011;48483;44.640;7.494;2022-10-04T02:31:43;7.85;;;5.13;;
39956;SDS011;48483;44.640;7.494;2022-10-04T02:34:29;8.27;;;5.88;;
39956;SDS011;48483;44.640;7.494;2022-10-04T02:36:56;7.32;;;5.90;;
39956;SDS011;48483;44.640;7.494;2022-10-04T02:39:27;6.82;;;4.80;;
39956;SDS011;48483;44.640;7.494;2022-10-04T02:41:59;12.20;;;7.03;;
39956;SDS011;48483;44.640;7.494;2022-10-04T02:44:29;10.88;;;5.57;;
39956;SDS011;48483;44.640;7.494;2022-10-04T02:47:04;8.73;;;5.60;;
39956;SDS011;48483;44.640;7.494;2022-10-04T02:49:34;9.70;;;5.68;;
39956;SDS011;48483;44.640;7.494;2022-10-04T02:52:04;9.05;;;5.60;;
39956;SDS011;48483;44.640;7.494;2022-10-04T02:54:35;7.78;;;5.60;;
39956;SDS011;48483;44.640;7.494;2022-10-04T02:57:13;12.82;;;6.10;;
39956;SDS011;48483;44.640;7.494;2022-10-04T02:59:42;10.40;;;5.90;;
39956;SDS011;48483;44.640;7.494;2022-10-04T03:02:19;9.05;;;5.65;;
39956;SDS011;48483;44.640;7.494;2022-10-04T03:04:48;10.40;;;6.63;;
39956;SDS011;48483;44.640;7.494;2022-10-04T03:07:16;7.15;;;6.25;;
39956;SDS011;48483;44.640;7.494;2022-10-04T03:09:44;10.32;;;6.57;;
39956;SDS011;48483;44.640;7.494;2022-10-04T03:12:11;12.70;;;7.78;;
39956;SDS011;48483;44.640;7.494;2022-10-04T03:14:40;12.30;;;7.88;;
39956;SDS011;48483;44.640;7.494;2022-10-04T03:17:07;10.52;;;7.93;;
39956;SDS011;48483;44.640;7.494;2022-10-04T03:19:34;10.68;;;8.50;;
39956;SDS011;48483;44.640;7.494;2022-10-04T03:22:05;10.90;;;7.93;;
39956;SDS011;48483;44.640;7.494;2022-10-04T03:24:36;11.45;;;7.93;;
39956;SDS011;48483;44.640;7.494;2022-10-04T03:27:04;14.40;;;9.55;;
39956;SDS011;48483;44.640;7.494;2022-10-04T03:29:35;13.07;;;9.43;;
39956;SDS011;48483;44.640;7.494;2022-10-04T03:32:09;13.65;;;10.20;;
39956;SDS011;48483;44.640;7.494;2022-10-04T03:34:40;15.15;;;11.73;;
39956;SDS011;48483;44.640;7.494;2022-10-04T03:37:13;13.70;;;10.27;;
39956;SDS011;48483;44.640;7.494;2022-10-04T03:39:44;14.95;;;11.77;;
39956;SDS011;48483;44.640;7.494;2022-10-04T03:42:13;17.17;;;11.43;;
39956;SDS011;48483;44.640;7.494;2022-10-04T03:44:44;15.63;;;10.30;;
39956;SDS011;48483;44.640;7.494;2022-10-04T03:47:13;13.95;;;10.65;;
39956;SDS011;48483;44.640;7.494;2022-10-04T03:49:42;15.25;;;11.88;;
39956;SDS011;48483;44.640;7.494;2022-10-04T03:52:13;23.35;;;13.00;;
39956;SDS011;48483;44.640;7.494;2022-10-04T03:54:46;17.63;;;12.48;;
39956;SDS011;48483;44.640;7.494;2022-10-04T03:57:16;18.20;;;12.65;;
39956;SDS011;48483;44.640;7.494;2022-10-04T03:59:45;20.27;;;12.73;;
39956;SDS011;48483;44.640;7.494;2022-10-04T04:02:14;15.32;;;11.48;;
39956;SDS011;48483;44.640;7.494;2022-10-04T04:04:48;16.88;;;11.68;;
39956;SDS011;48483;44.640;7.494;2022-10-04T04:07:23;18.83;;;12.98;;
39956;SDS011;48483;44.640;7.494;2022-10-04T04:12:25;20.95;;;14.35;;
39956;SDS011;48483;44.640;7.494;2022-10-04T04:15:01;14.93;;;13.40;;
39956;SDS011;48483;44.640;7.494;2022-10-04T04:17:36;16.15;;;13.70;;
39956;SDS011;48483;44.640;7.494;2022-10-04T04:20:17;18.30;;;15.30;;
39956;SDS011;48483;44.640;7.494;2022-10-04T04:22:51;17.83;;;14.23;;
39956;SDS011;48483;44.640;7.494;2022-10-04T04:25:24;20.45;;;15.48;;
39956;SDS011;48483;44.640;7.494;2022-10-04T04:27:55;23.23;;;17.27;;
39956;SDS011;48483;44.640;7.494;2022-10-04T04:30:29;18.20;;;15.82;;
39956;SDS011;48483;44.640;7.494;2022-10-04T04:33:06;21.52;;;16.85;;
39956;SDS011;48483;44.640;7.494;2022-10-04T04:35:37;17.80;;;14.93;;
39956;SDS011;48483;44.640;7.494;2022-10-04T04:38:04;21.30;;;15.35;;
39956;SDS011;48483;44.640;7.494;2022-10-04T04:40:39;19.48;;;15.93;;
39956;SDS011;48483;44.640;7.494;2022-10-04T04:43:08;19.30;;;15.70;;
39956;SDS011;48483;44.640;7.494;2022-10-04T04:45:43;19.05;;;15.55;;
39956;SDS011;48483;44.640;7.494;2022-10-04T04:48:11;19.83;;;16.02;;
39956;SDS011;48483;44.640;7.494;2022-10-04T04:50:40;19.60;;;15.57;;
39956;SDS011;48483;44.640;7.494;2022-10-04T04:53:11;20.80;;;15.63;;
39956;SDS011;48483;44.640;7.494;2022-10-04T04:55:41;20.83;;;16.63;;
39956;SDS011;48483;44.640;7.494;2022-10-04T04:58:10;22.65;;;16.63;;
39956;SDS011;48483;44.640;7.494;2022-10-04T05:00:45;23.00;;;16.55;;
39956;SDS011;48483;44.640;7.494;2022-10-04T05:03:19;18.50;;;15.55;;
39956;SDS011;48483;44.640;7.494;2022-10-04T05:05:46;21.38;;;15.65;;
39956;SDS011;48483;44.640;7.494;2022-10-04T05:08:14;21.35;;;16.17;;
39956;SDS011;48483;44.640;7.494;2022-10-04T05:10:45;19.52;;;16.05;;
39956;SDS011;48483;44.640;7.494;2022-10-04T05:13:15;22.33;;;17.58;;
39956;SDS011;48483;44.640;7.494;2022-10-04T05:15:43;20.50;;;16.13;;
39956;SDS011;48483;44.640;7.494;2022-10-04T05:18:18;17.98;;;15.88;;
39956;SDS011;48483;44.640;7.494;2022-10-04T05:20:53;22.20;;;17.38;;
39956;SDS011;48483;44.640;7.494;2022-10-04T05:23:22;19.02;;;16.75;;
39956;SDS011;48483;44.640;7.494;2022-10-04T05:25:49;20.45;;;16.17;;
39956;SDS011;48483;44.640;7.494;2022-10-04T05:28:16;19.50;;;16.50;;
39956;SDS011;48483;44.640;7.494;2022-10-04T05:30:46;19.02;;;15.77;;
39956;SDS011;48483;44.640;7.494;2022-10-04T05:33:25;21.45;;;15.65;;
39956;SDS011;48483;44.640;7.494;2022-10-04T05:36:12;21.77;;;16.25;;
39956;SDS011;48483;44.640;7.494;2022-10-04T05:38:57;23.30;;;17.73;;
39956;SDS011;48483;44.640;7.494;2022-10-04T05:41:31;20.55;;;15.93;;
39956;SDS011;48483;44.640;7.494;2022-10-04T05:44:16;23.80;;;18.98;;
39956;SDS011;48483;44.640;7.494;2022-10-04T05:46:48;24.60;;;17.55;;
39956;SDS011;48483;44.640;7.494;2022-10-04T05:49:17;26.45;;;18.23;;
39956;SDS011;48483;44.640;7.494;2022-10-04T05:51:49;26.70;;;17.83;;
39956;SDS011;48483;44.640;7.494;2022-10-04T05:54:18;20.98;;;18.45;;
39956;SDS011;48483;44.640;7.494;2022-10-04T05:59:51;27.77;;;18.45;;
39956;SDS011;48483;44.640;7.494;2022-10-04T06:05:48;26.42;;;16.90;;
39956;SDS011;48483;44.640;7.494;2022-10-04T06:08:22;23.48;;;18.05;;
39956;SDS011;48483;44.640;7.494;2022-10-04T06:10:57;27.30;;;16.50;;
39956;SDS011;48483;44.640;7.494;2022-10-04T06:13:43;29.05;;;18.85;;
39956;SDS011;48483;44.640;7.494;2022-10-04T06:16:26;22.38;;;18.08;;
39956;SDS011;48483;44.640;7.494;2022-10-04T06:19:08;26.55;;;19.05;;
39956;SDS011;48483;44.640;7.494;2022-10-04T06:24:26;23.60;;;17.58;;
39956;SDS011;48483;44.640;7.494;2022-10-04T06:26:58;26.73;;;18.45;;
39956;SDS011;48483;44.640;7.494;2022-10-04T06:29:27;22.77;;;17.30;;
39956;SDS011;48483;44.640;7.494;2022-10-04T06:35:13;22.73;;;19.02;;
39956;SDS011;48483;44.640;7.494;2022-10-04T06:38:04;26.52;;;20.10;;
39956;SDS011;48483;44.640;7.494;2022-10-04T06:40:52;23.60;;;20.08;;
39956;SDS011;48483;44.640;7.494;2022-10-04T06:43:49;22.20;;;18.48;;
39956;SDS011;48483;44.640;7.494;2022-10-04T06:46:33;30.50;;;20.42;;
39956;SDS011;48483;44.640;7.494;2022-10-04T06:49:12;61.67;;;28.52;;
39956;SDS011;48483;44.640;7.494;2022-10-04T06:52:06;42.25;;;22.50;;
39956;SDS011;48483;44.640;7.494;2022-10-04T06:54:53;27.48;;;19.98;;
39956;SDS011;48483;44.640;7.494;2022-10-04T06:57:46;21.45;;;18.05;;
39956;SDS011;48483;44.640;7.494;2022-10-04T07:00:25;21.17;;;17.67;;
39956;SDS011;48483;44.640;7.494;2022-10-04T07:02:53;24.80;;;19.33;;
39956;SDS011;48483;44.640;7.494;2022-10-04T07:05:26;22.90;;;19.25;;
39956;SDS011;48483;44.640;7.494;2022-10-04T07:08:01;25.65;;;19.50;;
39956;SDS011;48483;44.640;7.494;2022-10-04T07:10:34;27.73;;;16.27;;
39956;SDS011;48483;44.640;7.494;2022-10-04T07:13:09;24.13;;;17.60;;
39956;SDS011;48483;44.640;7.494;2022-10-04T07:15:43;24.90;;;17.98;;
39956;SDS011;48483;44.640;7.494;2022-10-04T07:18:14;23.02;;;18.52;;
39956;SDS011;48483;44.640;7.494;2022-10-04T07:20:48;28.17;;;17.55;;
39956;SDS011;48483;44.640;7.494;2022-10-04T07:23:20;25.45;;;17.98;;
39956;SDS011;48483;44.640;7.494;2022-10-04T07:25:52;23.42;;;19.25;;
39956;SDS011;48483;44.640;7.494;2022-10-04T07:28:24;21.60;;;18.35;;
39956;SDS011;48483;44.640;7.494;2022-10-04T07:31:13;20.92;;;18.05;;
39956;SDS011;48483;44.640;7.494;2022-10-04T07:33:48;21.92;;;18.17;;
39956;SDS011;48483;44.640;7.494;2022-10-04T07:36:20;33.40;;;18.73;;
39956;SDS011;48483;44.640;7.494;2022-10-04T07:38:50;26.27;;;17.10;;
39956;SDS011;48483;44.640;7.494;2022-10-04T07:41:24;32.63;;;19.30;;
39956;SDS011;48483;44.640;7.494;2022-10-04T07:43:55;88.95;;;23.90;;
39956;SDS011;48483;44.640;7.494;2022-10-04T07:46:28;45.97;;;16.77;;
39956;SDS011;48483;44.640;7.494;2022-10-04T07:49:10;31.77;;;17.92;;
39956;SDS011;48483;44.640;7.494;2022-10-04T07:51:39;24.33;;;15.35;;
39956;SDS011;48483;44.640;7.494;2022-10-04T07:54:15;22.63;;;18.55;;
39956;SDS011;48483;44.640;7.494;2022-10-04T07:56:50;21.95;;;17.90;;
39956;SDS011;48483;44.640;7.494;2022-10-04T07:59:26;22.73;;;17.63;;
39956;SDS011;48483;44.640;7.494;2022-10-04T08:02:07;21.65;;;17.77;;
39956;SDS011;48483;44.640;7.494;2022-10-04T08:04:45;24.85;;;16.55;;
39956;SDS011;48483;44.640;7.494;2022-10-04T08:07:22;19.75;;;14.63;;
39956;SDS011;48483;44.640;7.494;2022-10-04T08:09:56;19.40;;;15.57;;
39956;SDS011;48483;44.640;7.494;2022-10-04T08:12:33;19.98;;;16.25;;
39956;SDS011;48483;44.640;7.494;2022-10-04T08:15:27;19.33;;;15.75;;
39956;SDS011;48483;44.640;7.494;2022-10-04T08:18:02;20.55;;;14.77;;
39956;SDS011;48483;44.640;7.494;2022-10-04T08:20:37;19.88;;;14.82;;
39956;SDS011;48483;44.640;7.494;2022-10-04T08:23:17;18.48;;;13.73;;
39956;SDS011;48483;44.640;7.494;2022-10-04T08:25:55;19.17;;;14.30;;
39956;SDS011;48483;44.640;7.494;2022-10-04T08:28:36;17.67;;;13.98;;
39956;SDS011;48483;44.640;7.494;2022-10-04T08:31:51;15.68;;;12.55;;
39956;SDS011;48483;44.640;7.494;2022-10-04T08:34:32;14.77;;;12.63;;
39956;SDS011;48483;44.640;7.494;2022-10-04T08:37:09;15.25;;;11.75;;
39956;SDS011;48483;44.640;7.494;2022-10-04T08:39:50;16.50;;;13.68;;
39956;SDS011;48483;44.640;7.494;2022-10-04T08:42:43;16.90;;;14.02;;
39956;SDS011;48483;44.640;7.494;2022-10-04T08:45:55;16.20;;;13.52;;
39956;SDS011;48483;44.640;7.494;2022-10-04T08:54:42;16.77;;;13.02;;
39956;SDS011;48483;44.640;7.494;2022-10-04T09:00:29;18.35;;;15.73;;
39956;SDS011;48483;44.640;7.494;2022-10-04T09:03:27;17.90;;;15.57;;
39956;SDS011;48483;44.640;7.494;2022-10-04T09:12:14;21.05;;;17.48;;
39956;SDS011;48483;44.640;7.494;2022-10-04T09:15:01;27.13;;;22.27;;
39956;SDS011;48483;44.640;7.494;2022-10-04T09:17:42;27.52;;;24.23;;
39956;SDS011;48483;44.640;7.494;2022-10-04T09:20:22;38.15;;;33.10;;
39956;SDS011;48483;44.640;7.494;2022-10-04T09:23:07;39.22;;;30.67;;
39956;SDS011;48483;44.640;7.494;2022-10-04T09:25:47;40.58;;;32.78;;
39956;SDS011;48483;44.640;7.494;2022-10-04T09:28:19;36.30;;;32.45;;
39956;SDS011;48483;44.640;7.494;2022-10-04T09:31:16;36.95;;;32.67;;
39956;SDS011;48483;44.640;7.494;2022-10-04T09:34:07;41.85;;;37.33;;
39956;SDS011;48483;44.640;7.494;2022-10-04T09:36:58;44.03;;;38.33;;
39956;SDS011;48483;44.640;7.494;2022-10-04T09:39:38;45.25;;;37.05;;
39956;SDS011;48483;44.640;7.494;2022-10-04T09:42:27;38.67;;;34.58;;
39956;SDS011;48483;44.640;7.494;2022-10-04T09:45:14;38.63;;;34.42;;
39956;SDS011;48483;44.640;7.494;2022-10-04T09:51:19;36.67;;;32.20;;
39956;SDS011;48483;44.640;7.494;2022-10-04T09:54:18;40.20;;;35.15;;
39956;SDS011;48483;44.640;7.494;2022-10-04T09:57:07;43.75;;;36.63;;
39956;SDS011;48483;44.640;7.494;2022-10-04T10:02:58;41.53;;;35.95;;
39956;SDS011;48483;44.640;7.494;2022-10-04T10:05:54;37.45;;;33.45;;
39956;SDS011;48483;44.640;7.494;2022-10-04T10:08:35;37.63;;;33.17;;
39956;SDS011;48483;44.640;7.494;2022-10-04T10:17:14;37.08;;;30.92;;
39956;SDS011;48483;44.640;7.494;2022-10-04T10:20:07;36.53;;;32.78;;
39956;SDS011;48483;44.640;7.494;2022-10-04T10:22:59;38.25;;;33.08;;
39956;SDS011;48483;44.640;7.494;2022-10-04T10:26:07;36.55;;;32.85;;
39956;SDS011;48483;44.640;7.494;2022-10-04T10:29:04;38.38;;;34.20;;
39956;SDS011;48483;44.640;7.494;2022-10-04T10:31:58;40.38;;;35.97;;
39956;SDS011;48483;44.640;7.494;2022-10-04T10:34:39;39.85;;;35.30;;
39956;SDS011;48483;44.640;7.494;2022-10-04T10:37:20;38.20;;;34.08;;
39956;SDS011;48483;44.640;7.494;2022-10-04T10:40:02;39.40;;;35.30;;
39956;SDS011;48483;44.640;7.494;2022-10-04T10:42:58;41.00;;;35.08;;
39956;SDS011;48483;44.640;7.494;2022-10-04T10:45:53;41.35;;;36.80;;
39956;SDS011;48483;44.640;7.494;2022-10-04T10:48:33;42.05;;;35.42;;
39956;SDS011;48483;44.640;7.494;2022-10-04T10:51:16;42.22;;;36.67;;
39956;SDS011;48483;44.640;7.494;2022-10-04T10:56:59;40.95;;;35.80;;
39956;SDS011;48483;44.640;7.494;2022-10-04T11:11:43;39.38;;;32.63;;
39956;SDS011;48483;44.640;7.494;2022-10-04T11:14:29;37.63;;;31.77;;
39956;SDS011;48483;44.640;7.494;2022-10-04T11:17:18;37.58;;;32.58;;
39956;SDS011;48483;44.640;7.494;2022-10-04T11:20:15;36.10;;;31.75;;
39956;SDS011;48483;44.640;7.494;2022-10-04T11:23:19;36.58;;;32.60;;
39956;SDS011;48483;44.640;7.494;2022-10-04T11:26:31;38.47;;;32.17;;
39956;SDS011;48483;44.640;7.494;2022-10-04T11:29:41;35.05;;;31.35;;
39956;SDS011;48483;44.640;7.494;2022-10-04T11:38:49;36.42;;;32.63;;
39956;SDS011;48483;44.640;7.494;2022-10-04T11:41:25;35.83;;;32.33;;
39956;SDS011;48483;44.640;7.494;2022-10-04T11:44:10;40.17;;;32.70;;
39956;SDS011;48483;44.640;7.494;2022-10-04T11:47:02;38.45;;;32.45;;
39956;SDS011;48483;44.640;7.494;2022-10-04T11:49:48;37.25;;;33.50;;
39956;SDS011;48483;44.640;7.494;2022-10-04T11:52:43;36.60;;;32.67;;
39956;SDS011;48483;44.640;7.494;2022-10-04T11:58:43;34.75;;;30.90;;
39956;SDS011;48483;44.640;7.494;2022-10-04T12:01:24;31.70;;;28.20;;
39956;SDS011;48483;44.640;7.494;2022-10-04T12:04:20;33.42;;;30.05;;
39956;SDS011;48483;44.640;7.494;2022-10-04T12:07:23;33.58;;;29.85;;
39956;SDS011;48483;44.640;7.494;2022-10-04T12:10:12;37.25;;;32.33;;
39956;SDS011;48483;44.640;7.494;2022-10-04T12:12:52;37.75;;;32.72;;
39956;SDS011;48483;44.640;7.494;2022-10-04T12:18:42;35.85;;;32.03;;
39956;SDS011;48483;44.640;7.494;2022-10-04T12:21:40;38.00;;;31.42;;
39956;SDS011;48483;44.640;7.494;2022-10-04T12:24:23;35.95;;;32.17;;
39956;SDS011;48483;44.640;7.494;2022-10-04T12:27:22;40.28;;;35.47;;
39956;SDS011;48483;44.640;7.494;2022-10-04T12:32:57;38.47;;;34.42;;
39956;SDS011;48483;44.640;7.494;2022-10-04T12:35:33;38.30;;;34.35;;
39956;SDS011;48483;44.640;7.494;2022-10-04T12:38:18;37.90;;;33.90;;
39956;SDS011;48483;44.640;7.494;2022-10-04T12:41:06;41.22;;;33.50;;
39956;SDS011;48483;44.640;7.494;2022-10-04T12:43:45;37.63;;;31.55;;
39956;SDS011;48483;44.640;7.494;2022-10-04T12:46:28;35.42;;;31.73;;
39956;SDS011;48483;44.640;7.494;2022-10-04T12:49:07;34.42;;;30.80;;
39956;SDS011;48483;44.640;7.494;2022-10-04T12:51:48;34.97;;;31.17;;
39956;SDS011;48483;44.640;7.494;2022-10-04T12:54:25;36.00;;;32.17;;
39956;SDS011;48483;44.640;7.494;2022-10-04T12:57:03;32.75;;;29.17;;
39956;SDS011;48483;44.640;7.494;2022-10-04T13:00:13;34.22;;;30.67;;
39956;SDS011;48483;44.640;7.494;2022-10-04T13:05:35;34.15;;;30.45;;
39956;SDS011;48483;44.640;7.494;2022-10-04T13:08:17;33.75;;;30.23;;
39956;SDS011;48483;44.640;7.494;2022-10-04T13:10:53;33.95;;;30.30;;
39956;SDS011;48483;44.640;7.494;2022-10-04T13:14:00;32.83;;;29.35;;
39956;SDS011;48483;44.640;7.494;2022-10-04T13:16:41;30.58;;;27.35;;
39956;SDS011;48483;44.640;7.494;2022-10-04T13:19:16;30.42;;;27.25;;
39956;SDS011;48483;44.640;7.494;2022-10-04T13:21:56;33.47;;;29.35;;
39956;SDS011;48483;44.640;7.494;2022-10-04T13:24:36;33.38;;;29.83;;
39956;SDS011;48483;44.640;7.494;2022-10-04T13:27:28;33.30;;;29.88;;
39956;SDS011;48483;44.640;7.494;2022-10-04T13:30:04;33.65;;;29.92;;
39956;SDS011;48483;44.640;7.494;2022-10-04T13:32:42;35.22;;;31.45;;
39956;SDS011;48483;44.640;7.494;2022-10-04T13:35:17;33.33;;;29.88;;
39956;SDS011;48483;44.640;7.494;2022-10-04T13:37:52;36.97;;;30.17;;
39956;SDS011;48483;44.640;7.494;2022-10-04T13:40:41;36.97;;;32.78;;
39956;SDS011;48483;44.640;7.494;2022-10-04T13:46:21;34.05;;;30.55;;
39956;SDS011;48483;44.640;7.494;2022-10-04T13:49:03;35.35;;;31.70;;
39956;SDS011;48483;44.640;7.494;2022-10-04T13:51:46;36.13;;;32.42;;
39956;SDS011;48483;44.640;7.494;2022-10-04T13:54:45;36.85;;;32.65;;
39956;SDS011;48483;44.640;7.494;2022-10-04T13:57:39;36.42;;;32.28;;
39956;SDS011;48483;44.640;7.494;2022-10-04T14:00:16;35.78;;;31.98;;
39956;SDS011;48483;44.640;7.494;2022-10-04T14:03:00;34.08;;;30.40;;
39956;SDS011;48483;44.640;7.494;2022-10-04T14:05:54;37.03;;;33.15;;
39956;SDS011;48483;44.640;7.494;2022-10-04T14:08:49;39.42;;;32.22;;
39956;SDS011;48483;44.640;7.494;2022-10-04T14:21:05;37.67;;;33.60;;
39956;SDS011;48483;44.640;7.494;2022-10-04T14:24:05;39.30;;;35.28;;
39956;SDS011;48483;44.640;7.494;2022-10-04T14:27:15;41.78;;;36.25;;
39956;SDS011;48483;44.640;7.494;2022-10-04T14:30:09;39.75;;;35.20;;
39956;SDS011;48483;44.640;7.494;2022-10-04T14:32:54;41.80;;;34.67;;
39956;SDS011;48483;44.640;7.494;2022-10-04T14:35:48;41.03;;;33.47;;
39956;SDS011;48483;44.640;7.494;2022-10-04T14:38:41;39.67;;;35.30;;
39956;SDS011;48483;44.640;7.494;2022-10-04T14:41:43;33.15;;;29.48;;
39956;SDS011;48483;44.640;7.494;2022-10-04T14:44:41;37.90;;;33.85;;
39956;SDS011;48483;44.640;7.494;2022-10-04T14:47:30;40.42;;;36.25;;
39956;SDS011;48483;44.640;7.494;2022-10-04T14:50:16;41.03;;;35.95;;
39956;SDS011;48483;44.640;7.494;2022-10-04T14:55:31;38.00;;;33.92;;
39956;SDS011;48483;44.640;7.494;2022-10-04T14:58:15;40.70;;;36.40;;
39956;SDS011;48483;44.640;7.494;2022-10-04T15:00:53;37.95;;;33.88;;
39956;SDS011;48483;44.640;7.494;2022-10-04T15:03:30;41.20;;;36.63;;
39956;SDS011;48483;44.640;7.494;2022-10-04T15:06:13;43.40;;;36.35;;
39956;SDS011;48483;44.640;7.494;2022-10-04T15:11:41;41.83;;;37.28;;
39956;SDS011;48483;44.640;7.494;2022-10-04T15:14:24;42.72;;;35.58;;
39956;SDS011;48483;44.640;7.494;2022-10-04T15:17:01;41.17;;;36.90;;
39956;SDS011;48483;44.640;7.494;2022-10-04T15:19:33;40.90;;;36.22;;
39956;SDS011;48483;44.640;7.494;2022-10-04T15:22:30;41.35;;;36.90;;
39956;SDS011;48483;44.640;7.494;2022-10-04T15:30:44;40.55;;;34.00;;
39956;SDS011;48483;44.640;7.494;2022-10-04T15:33:24;38.92;;;34.90;;
39956;SDS011;48483;44.640;7.494;2022-10-04T15:36:09;41.28;;;34.72;;
39956;SDS011;48483;44.640;7.494;2022-10-04T15:38:51;42.15;;;35.63;;
39956;SDS011;48483;44.640;7.494;2022-10-04T15:41:24;40.80;;;36.50;;
39956;SDS011;48483;44.640;7.494;2022-10-04T15:44:14;43.25;;;36.20;;
39956;SDS011;48483;44.640;7.494;2022-10-04T15:47:06;37.78;;;33.85;;
39956;SDS011;48483;44.640;7.494;2022-10-04T15:49:49;40.58;;;36.15;;
39956;SDS011;48483;44.640;7.494;2022-10-04T15:55:30;40.72;;;36.47;;
39956;SDS011;48483;44.640;7.494;2022-10-04T15:58:18;41.22;;;36.83;;
39956;SDS011;48483;44.640;7.494;2022-10-04T16:01:01;43.22;;;38.42;;
39956;SDS011;48483;44.640;7.494;2022-10-04T16:03:45;43.25;;;38.55;;
39956;SDS011;48483;44.640;7.494;2022-10-04T16:06:20;43.78;;;39.28;;
39956;SDS011;48483;44.640;7.494;2022-10-04T16:11:54;42.88;;;38.25;;
39956;SDS011;48483;44.640;7.494;2022-10-04T16:17:43;41.70;;;37.33;;
39956;SDS011;48483;44.640;7.494;2022-10-04T16:23:40;43.22;;;37.40;;
39956;SDS011;48483;44.640;7.494;2022-10-04T16:26:09;44.42;;;39.60;;
39956;SDS011;48483;44.640;7.494;2022-10-04T16:28:44;43.72;;;39.08;;
39956;SDS011;48483;44.640;7.494;2022-10-04T16:31:36;42.33;;;37.80;;
39956;SDS011;48483;44.640;7.494;2022-10-04T16:34:26;42.83;;;38.03;;
39956;SDS011;48483;44.640;7.494;2022-10-04T16:37:12;43.40;;;38.53;;
39956;SDS011;48483;44.640;7.494;2022-10-04T16:39:53;42.88;;;38.22;;
39956;SDS011;48483;44.640;7.494;2022-10-04T16:42:30;43.47;;;38.90;;
39956;SDS011;48483;44.640;7.494;2022-10-04T16:45:29;44.30;;;39.53;;
39956;SDS011;48483;44.640;7.494;2022-10-04T16:48:04;41.85;;;37.40;;
39956;SDS011;48483;44.640;7.494;2022-10-04T16:50:48;41.85;;;37.13;;
39956;SDS011;48483;44.640;7.494;2022-10-04T16:53:25;41.28;;;36.92;;
39956;SDS011;48483;44.640;7.494;2022-10-04T16:56:08;41.55;;;37.00;;
39956;SDS011;48483;44.640;7.494;2022-10-04T17:01:33;40.20;;;35.97;;
39956;SDS011;48483;44.640;7.494;2022-10-04T17:04:33;40.33;;;36.03;;
39956;SDS011;48483;44.640;7.494;2022-10-04T17:07:24;43.22;;;36.05;;
39956;SDS011;48483;44.640;7.494;2022-10-04T17:10:01;39.53;;;34.05;;
39956;SDS011;48483;44.640;7.494;2022-10-04T17:12:45;40.13;;;35.92;;
39956;SDS011;48483;44.640;7.494;2022-10-04T17:15:32;44.17;;;35.42;;
39956;SDS011;48483;44.640;7.494;2022-10-04T17:18:11;42.55;;;38.03;;
39956;SDS011;48483;44.640;7.494;2022-10-04T17:20:46;41.53;;;36.65;;
39956;SDS011;48483;44.640;7.494;2022-10-04T17:23:27;39.75;;;35.47;;
39956;SDS011;48483;44.640;7.494;2022-10-04T17:26:13;44.10;;;38.13;;
39956;SDS011;48483;44.640;7.494;2022-10-04T17:28:54;39.92;;;35.63;;
39956;SDS011;48483;44.640;7.494;2022-10-04T17:31:25;42.88;;;38.03;;
39956;SDS011;48483;44.640;7.494;2022-10-04T17:33:58;39.97;;;34.85;;
39956;SDS011;48483;44.640;7.494;2022-10-04T17:36:34;50.28;;;39.00;;
39956;SDS011;48483;44.640;7.494;2022-10-04T17:41:49;43.92;;;39.13;;
39956;SDS011;48483;44.640;7.494;2022-10-04T17:44:33;43.30;;;37.35;;
39956;SDS011;48483;44.640;7.494;2022-10-04T17:47:18;43.60;;;36.50;;
39956;SDS011;48483;44.640;7.494;2022-10-04T17:49:53;41.35;;;36.97;;
39956;SDS011;48483;44.640;7.494;2022-10-04T17:55:43;40.95;;;34.40;;
39956;SDS011;48483;44.640;7.494;2022-10-04T17:58:14;41.65;;;36.35;;